Time;durP1;ratioP1;P1;durP2;ratioP2;P2;SDS_P1;SDS_P2;PMS_P1;PMS_P2;Temp;Humidity;BMP_temperature;BMP_pressure;BME280_temperature;BME280_humidity;BME280_pressure;Samples;Min_cycle;Max_cycle;Signal;HPM_P1;HPM_P2
2024/03/17 00:02:18;;;;;;;;;;;;;;;20.06;39.54;101300.94;103266;1289;61457;-78
2024/03/17 00:04:45;;;;;;;;;;;;;;;20.05;39.65;101296.84;103065;1289;61373;-78
2024/03/17 00:07:11;;;;;;;;;;;;;;;20.05;39.58;101297.73;103197;1291;62572;-78
2024/03/17 00:09:36;;;;;;;;;;;;;;;20.05;39.50;101295.78;103107;1289;61550;-79
2024/03/17 00:12:02;;;;;;;;;;;;;;;20.05;39.52;101295.98;103066;1289;61404;-78
2024/03/17 00:14:28;;;;;;;;;;;;;;;20.05;39.62;101294.54;103180;1288;61393;-78
2024/03/17 00:16:55;;;;;;;;;;;;;;;20.04;39.54;101293.52;103186;1289;61401;-79
2024/03/17 00:19:23;;;;;;;;;;;;;;;20.05;39.59;101295.45;103199;1291;61844;-78
2024/03/17 00:21:50;;;;;;;;;;;;;;;20.04;39.42;101295.84;103043;1289;61829;-78
2024/03/17 00:24:16;;;;;;;;;;;;;;;20.04;39.54;101291.20;103219;1291;62614;-78
2024/03/17 00:26:42;;;;;;;;;;;;;;;20.04;39.62;101290.84;103192;1292;61407;-78
2024/03/17 00:29:17;;;;;;;;;;;;;;;20.03;39.47;101287.30;103193;1289;61473;-77
2024/03/17 00:31:42;;;;;;;;;;;;;;;20.04;39.51;101286.03;103205;1289;61388;-79
2024/03/17 00:34:09;;;;;;;;;;;;;;;20.03;39.59;101283.92;103182;1289;61412;-79
2024/03/17 00:36:34;;;;;;;;;;;;;;;20.03;39.47;101283.36;103117;1287;61923;-78
2024/03/17 00:39:00;;;;;;;;;;;;;;;20.03;39.61;101279.83;103242;1289;62430;-78
2024/03/17 00:41:26;;;;;;;;;;;;;;;20.03;39.58;101282.89;103227;1291;61381;-78
2024/03/17 00:43:52;;;;;;;;;;;;;;;20.03;39.54;101284.48;103193;1289;62541;-78
2024/03/17 00:46:20;;;;;;;;;;;;;;;20.03;39.59;101282.52;103308;1289;61374;-78
2024/03/17 00:48:48;;;;;;;;;;;;;;;20.03;39.61;101279.84;103171;1289;74513;-76
2024/03/17 00:51:13;;;;;;;;;;;;;;;20.02;39.63;101279.33;102935;1292;61317;-78
2024/03/17 00:53:40;;;;;;;;;;;;;;;20.02;39.57;101279.69;103178;1288;61640;-78
2024/03/17 00:56:06;;;;;;;;;;;;;;;20.02;39.67;101278.08;103224;1289;61314;-78
2024/03/17 00:58:32;;;;;;;;;;;;;;;20.02;39.62;101278.45;103196;1291;61297;-78
2024/03/17 01:00:57;;;;;;;;;;;;;;;20.02;39.57;101275.80;103273;1289;61838;-78
2024/03/17 01:03:23;;;;;;;;;;;;;;;20.01;39.62;101276.38;102846;1289;61474;-78
2024/03/17 01:05:52;;;;;;;;;;;;;;;20.01;39.34;101274.61;103135;1289;61374;-78
2024/03/17 01:08:18;;;;;;;;;;;;;;;20.01;39.40;101279.94;103122;1287;61769;-78
2024/03/17 01:10:44;;;;;;;;;;;;;;;20.01;39.52;101279.92;103160;1287;61863;-78
2024/03/17 01:13:10;;;;;;;;;;;;;;;20.01;39.55;101282.63;103108;1289;61481;-77
2024/03/17 01:15:36;;;;;;;;;;;;;;;20.01;39.53;101276.40;103206;1291;61470;-78
2024/03/17 01:18:06;;;;;;;;;;;;;;;20.01;39.56;101275.69;103194;1289;62008;-78
2024/03/17 01:20:32;;;;;;;;;;;;;;;20.01;39.40;101276.40;103057;1290;61342;-77
2024/03/17 01:22:57;;;;;;;;;;;;;;;20.01;39.49;101271.58;103254;1289;61425;-78
2024/03/17 01:25:25;;;;;;;;;;;;;;;20.00;39.41;101269.82;103228;1289;61406;-78
2024/03/17 01:27:51;;;;;;;;;;;;;;;20.00;39.58;101268.39;103192;1289;61305;-79
2024/03/17 01:30:17;;;;;;;;;;;;;;;20.00;39.69;101263.77;103078;1291;61371;-79
2024/03/17 01:32:42;;;;;;;;;;;;;;;20.00;39.46;101261.63;103117;1289;61377;-79
2024/03/17 01:35:08;;;;;;;;;;;;;;;19.99;39.65;101259.17;103060;1289;61483;-78
2024/03/17 01:37:34;;;;;;;;;;;;;;;19.99;39.70;101260.58;103165;1289;62009;-78
2024/03/17 01:39:59;;;;;;;;;;;;;;;19.99;39.64;101257.55;103117;1289;61461;-79
2024/03/17 01:42:25;;;;;;;;;;;;;;;19.99;39.62;101255.92;103193;1288;62525;-78
2024/03/17 01:44:50;;;;;;;;;;;;;;;19.99;39.56;101253.66;103089;1289;61913;-79
2024/03/17 01:47:18;;;;;;;;;;;;;;;19.99;39.60;101252.93;102834;1289;61490;-78
2024/03/17 01:49:45;;;;;;;;;;;;;;;19.99;39.68;101252.78;103290;1289;61981;-78
2024/03/17 01:52:10;;;;;;;;;;;;;;;19.98;39.71;101252.09;103051;1289;61419;-79
2024/03/17 01:54:37;;;;;;;;;;;;;;;19.98;39.53;101251.52;103081;1287;62375;-79
2024/03/17 01:57:02;;;;;;;;;;;;;;;19.98;39.72;101251.00;103177;1288;61369;-78
2024/03/17 01:59:28;;;;;;;;;;;;;;;19.98;39.71;101252.27;103235;1291;61375;-78
2024/03/17 02:02:03;;;;;;;;;;;;;;;19.97;39.62;101254.79;103084;1288;61363;-80
2024/03/17 02:04:29;;;;;;;;;;;;;;;19.97;39.60;101250.33;103249;1289;61489;-79
2024/03/17 02:06:54;;;;;;;;;;;;;;;19.97;39.60;101253.55;103247;1289;61293;-79
2024/03/17 02:09:21;;;;;;;;;;;;;;;19.97;39.54;101250.88;103081;1289;62558;-79
2024/03/17 02:11:47;;;;;;;;;;;;;;;19.97;39.61;101251.08;103216;1289;61427;-78
2024/03/17 02:14:14;;;;;;;;;;;;;;;19.97;39.67;101256.08;103040;1288;61552;-78
2024/03/17 02:16:40;;;;;;;;;;;;;;;19.97;39.68;101253.39;103237;1289;61391;-78
2024/03/17 02:19:06;;;;;;;;;;;;;;;19.97;39.61;101250.71;103265;1288;61388;-78
2024/03/17 02:21:31;;;;;;;;;;;;;;;19.97;39.62;101248.95;102752;1289;742862;-78
2024/03/17 02:23:57;;;;;;;;;;;;;;;19.96;39.59;101243.79;103085;1289;61757;-78
2024/03/17 02:26:24;;;;;;;;;;;;;;;19.96;39.60;101242.20;103099;1289;61489;-80
2024/03/17 02:28:50;;;;;;;;;;;;;;;19.96;39.67;101242.58;102844;1289;73355;-78
2024/03/17 02:31:16;;;;;;;;;;;;;;;19.96;39.59;101240.80;103073;1289;61384;-79
2024/03/17 02:33:43;;;;;;;;;;;;;;;19.95;39.56;101245.64;103070;1294;61441;-77
2024/03/17 02:36:11;;;;;;;;;;;;;;;19.95;39.61;101242.42;103241;1289;62556;-78
2024/03/17 02:41:21;;;;;;;;;;;;;;;19.95;39.58;101239.95;103132;1289;73615;-78
2024/03/17 02:43:47;;;;;;;;;;;;;;;19.94;39.49;101240.87;103295;1291;61399;-79
2024/03/17 02:46:14;;;;;;;;;;;;;;;19.94;39.56;101238.36;103078;1289;61410;-78
2024/03/17 02:48:44;;;;;;;;;;;;;;;19.94;39.49;101237.48;102788;1294;62396;-78
2024/03/17 02:51:14;;;;;;;;;;;;;;;19.93;39.57;101234.29;103197;1288;74470;-78
2024/03/17 02:53:44;;;;;;;;;;;;;;;19.94;39.47;101230.72;103072;1289;61543;-78
2024/03/17 02:56:11;;;;;;;;;;;;;;;19.94;39.55;101231.07;103220;1289;61733;-78
2024/03/17 02:58:36;;;;;;;;;;;;;;;19.93;39.66;101227.34;103180;1289;61311;-79
2024/03/17 03:01:04;;;;;;;;;;;;;;;19.93;39.57;101221.29;103182;1291;61932;-78
2024/03/17 03:03:30;;;;;;;;;;;;;;;19.93;39.50;101221.81;103162;1289;62629;-78
2024/03/17 03:05:56;;;;;;;;;;;;;;;19.93;39.73;101220.58;103242;1288;61384;-78
2024/03/17 03:08:23;;;;;;;;;;;;;;;19.92;39.67;101218.29;103283;1289;62530;-78
2024/03/17 03:10:49;;;;;;;;;;;;;;;19.92;39.55;101221.50;102873;1288;61362;-79
2024/03/17 03:13:14;;;;;;;;;;;;;;;19.92;39.58;101219.73;103069;1289;62175;-79
2024/03/17 03:15:40;;;;;;;;;;;;;;;19.92;39.62;101220.08;103107;1289;61413;-79
2024/03/17 03:18:06;;;;;;;;;;;;;;;19.92;39.37;101218.67;102859;1294;61471;-78
2024/03/17 03:20:31;;;;;;;;;;;;;;;19.91;39.57;101221.02;103107;1289;61409;-78
2024/03/17 03:22:57;;;;;;;;;;;;;;;19.91;39.61;101217.64;103194;1289;61299;-78
2024/03/17 03:25:22;;;;;;;;;;;;;;;19.91;39.69;101221.05;103242;1291;61832;-78
2024/03/17 03:27:48;;;;;;;;;;;;;;;19.90;39.56;101222.13;103281;1289;61492;-78
2024/03/17 03:30:15;;;;;;;;;;;;;;;19.90;39.55;101223.58;103222;1289;61420;-79
2024/03/17 03:32:42;;;;;;;;;;;;;;;19.90;39.66;101218.95;103060;1289;61292;-79
2024/03/17 03:35:08;;;;;;;;;;;;;;;19.90;39.59;101217.54;103054;1289;62280;-79
2024/03/17 03:37:33;;;;;;;;;;;;;;;19.90;39.54;101215.90;103239;1289;62487;-79
2024/03/17 03:39:59;;;;;;;;;;;;;;;19.90;39.64;101219.86;103162;1289;61423;-78
2024/03/17 03:42:25;;;;;;;;;;;;;;;19.90;39.56;101215.76;103184;1288;73359;-79
2024/03/17 03:44:50;;;;;;;;;;;;;;;19.89;39.53;101215.09;103180;1291;61337;-79
2024/03/17 03:47:16;;;;;;;;;;;;;;;19.89;39.42;101217.60;103045;1289;61445;-80
2024/03/17 03:49:42;;;;;;;;;;;;;;;19.88;39.66;101217.82;103200;1290;61384;-78
2024/03/17 03:52:09;;;;;;;;;;;;;;;19.89;39.63;101222.24;103108;1289;62673;-78
2024/03/17 03:54:35;;;;;;;;;;;;;;;19.88;39.63;101221.59;103198;1289;61297;-79
2024/03/17 03:57:01;;;;;;;;;;;;;;;19.87;39.58;101226.79;103089;1289;62198;-78
2024/03/17 03:59:26;;;;;;;;;;;;;;;19.88;39.52;101230.17;103272;1289;62078;-78
2024/03/17 04:01:52;;;;;;;;;;;;;;;19.88;39.47;101225.71;103089;1289;61871;-79
2024/03/17 04:04:17;;;;;;;;;;;;;;;19.88;39.57;101224.83;103177;1289;61381;-78
2024/03/17 04:06:43;;;;;;;;;;;;;;;19.87;39.64;101226.80;103218;1289;61397;-78
2024/03/17 04:09:09;;;;;;;;;;;;;;;19.86;39.44;101224.15;103242;1289;61404;-79
2024/03/17 04:11:34;;;;;;;;;;;;;;;19.87;39.47;101228.25;103220;1291;61400;-80
2024/03/17 04:14:00;;;;;;;;;;;;;;;19.87;39.60;101224.51;103209;1288;62246;-78
2024/03/17 04:16:26;;;;;;;;;;;;;;;19.87;39.50;101226.67;103510;1289;61398;-78
2024/03/17 04:18:52;;;;;;;;;;;;;;;19.86;39.65;101229.58;102854;1289;61386;-78
2024/03/17 04:21:17;;;;;;;;;;;;;;;19.86;39.53;101233.11;103168;1289;61404;-78
2024/03/17 04:23:43;;;;;;;;;;;;;;;19.86;39.50;101236.70;103220;1287;61426;-78
2024/03/17 04:26:09;;;;;;;;;;;;;;;19.86;39.51;101240.63;103268;1291;61404;-78
2024/03/17 04:28:35;;;;;;;;;;;;;;;19.86;39.52;101245.29;103215;1288;71436;-78
2024/03/17 04:31:07;;;;;;;;;;;;;;;19.86;39.46;101246.73;103151;1289;74480;-78
2024/03/17 04:33:33;;;;;;;;;;;;;;;19.85;39.61;101248.36;103101;1289;61326;-78
2024/03/17 04:35:59;;;;;;;;;;;;;;;19.85;39.55;101248.92;103242;1290;61864;-77
2024/03/17 04:38:25;;;;;;;;;;;;;;;19.85;39.38;101250.33;103306;1288;61432;-78
2024/03/17 04:40:59;;;;;;;;;;;;;;;19.85;39.50;101255.34;103019;1289;61378;-79
2024/03/17 04:43:25;;;;;;;;;;;;;;;19.85;39.51;101258.73;103185;1289;61289;-78
2024/03/17 04:45:58;;;;;;;;;;;;;;;19.85;39.38;101264.80;103072;1289;62004;-78
2024/03/17 04:48:24;;;;;;;;;;;;;;;19.84;39.41;101260.91;103237;1287;72572;-78
2024/03/17 04:50:49;;;;;;;;;;;;;;;19.85;39.54;101261.97;103208;1291;61396;-78
2024/03/17 04:53:15;;;;;;;;;;;;;;;19.84;39.24;101263.77;103249;1289;62463;-77
2024/03/17 04:55:41;;;;;;;;;;;;;;;19.84;39.34;101265.02;103304;1289;61410;-78
2024/03/17 04:58:06;;;;;;;;;;;;;;;19.84;39.55;101260.20;103210;1289;61297;-79
2024/03/17 05:00:32;;;;;;;;;;;;;;;19.84;39.46;101263.25;103179;1288;72719;-80
2024/03/17 05:02:57;;;;;;;;;;;;;;;19.84;39.50;101266.81;103056;1292;61496;-78
2024/03/17 05:05:23;;;;;;;;;;;;;;;19.84;39.49;101268.60;103094;1289;61378;-79
2024/03/17 05:07:49;;;;;;;;;;;;;;;19.84;39.46;101265.77;103245;1289;61349;-78
2024/03/17 05:10:15;;;;;;;;;;;;;;;19.84;39.56;101262.90;103116;1289;62356;-79
2024/03/17 05:12:41;;;;;;;;;;;;;;;19.84;39.47;101264.52;103143;1289;61419;-80
2024/03/17 05:15:07;;;;;;;;;;;;;;;19.84;39.39;101268.78;103067;1289;74517;-78
2024/03/17 05:17:32;;;;;;;;;;;;;;;19.84;39.44;101269.70;103093;1289;61402;-79
2024/03/17 05:19:58;;;;;;;;;;;;;;;19.83;39.50;101270.27;103213;1288;61391;-79
2024/03/17 05:22:24;;;;;;;;;;;;;;;19.83;39.38;101275.46;103239;1289;61364;-78
2024/03/17 05:24:49;;;;;;;;;;;;;;;19.84;39.45;101275.07;103220;1288;61413;-78
2024/03/17 05:27:15;;;;;;;;;;;;;;;19.83;39.41;101274.38;103156;1289;61493;-79
2024/03/17 05:29:40;;;;;;;;;;;;;;;19.82;39.46;101271.38;103062;1291;61663;-79
2024/03/17 05:32:06;;;;;;;;;;;;;;;19.83;39.44;101271.21;103277;1288;61401;-78
2024/03/17 05:34:32;;;;;;;;;;;;;;;19.82;39.54;101272.29;103212;1287;61396;-78
2024/03/17 05:36:58;;;;;;;;;;;;;;;19.82;39.51;101275.00;103243;1289;61483;-78
2024/03/17 05:39:24;;;;;;;;;;;;;;;19.82;39.40;101275.88;103150;1289;61782;-78
2024/03/17 05:41:49;;;;;;;;;;;;;;;19.82;39.59;101278.38;103092;1294;61429;-78
2024/03/17 05:44:15;;;;;;;;;;;;;;;19.81;39.33;101276.80;103099;1289;61980;-78
2024/03/17 05:46:41;;;;;;;;;;;;;;;19.82;39.49;101281.44;103278;1289;61396;-79
2024/03/17 05:49:07;;;;;;;;;;;;;;;19.82;39.51;101283.23;103200;1291;62450;-78
2024/03/17 05:51:33;;;;;;;;;;;;;;;19.81;39.50;101285.76;103179;1289;61318;-78
2024/03/17 05:53:58;;;;;;;;;;;;;;;19.81;39.35;101291.11;103382;1288;62040;-78
2024/03/17 05:56:24;;;;;;;;;;;;;;;19.81;39.25;101288.45;103165;1288;61821;-78
2024/03/17 05:58:50;;;;;;;;;;;;;;;19.81;39.50;101290.41;102915;1289;61555;-78
2024/03/17 06:01:15;;;;;;;;;;;;;;;19.81;39.40;101289.50;103226;1291;74328;-78
2024/03/17 06:03:41;;;;;;;;;;;;;;;19.81;39.29;101290.94;103330;1287;61484;-79
2024/03/17 06:06:11;;;;;;;;;;;;;;;19.81;39.41;101286.81;103255;1288;61407;-78
2024/03/17 06:08:38;;;;;;;;;;;;;;;19.82;39.51;101291.60;103153;1292;72240;-79
2024/03/17 06:11:04;;;;;;;;;;;;;;;19.82;39.35;101293.94;103275;1289;61404;-78
2024/03/17 06:13:30;;;;;;;;;;;;;;;19.82;39.54;101295.01;103189;1289;61464;-78
2024/03/17 06:16:00;;;;;;;;;;;;;;;19.82;39.37;101291.09;103205;1289;61386;-80
2024/03/17 06:18:26;;;;;;;;;;;;;;;19.82;39.25;101297.16;102864;1294;71421;-79
2024/03/17 06:20:52;;;;;;;;;;;;;;;19.82;39.31;101295.73;103313;1288;61413;-78
2024/03/17 06:23:17;;;;;;;;;;;;;;;19.81;39.38;101300.56;103203;1287;61400;-78
2024/03/17 06:25:44;;;;;;;;;;;;;;;19.81;39.33;101297.55;103169;1289;61404;-79
2024/03/17 06:28:13;;;;;;;;;;;;;;;19.82;39.33;101296.45;103336;1289;62141;-78
2024/03/17 06:30:40;;;;;;;;;;;;;;;19.81;39.23;101297.19;103333;1289;74995;-78
2024/03/17 06:33:06;;;;;;;;;;;;;;;19.82;39.35;101297.35;103185;1292;61391;-78
2024/03/17 06:35:31;;;;;;;;;;;;;;;19.82;39.34;101296.08;103364;1289;61294;-78
2024/03/17 06:38:00;;;;;;;;;;;;;;;19.82;39.37;101301.44;103247;1291;61301;-78
2024/03/17 06:40:26;;;;;;;;;;;;;;;19.82;39.38;101304.99;103178;1288;74421;-78
2024/03/17 06:42:53;;;;;;;;;;;;;;;19.82;39.40;101308.38;103194;1289;61490;-78
2024/03/17 06:45:20;;;;;;;;;;;;;;;19.82;39.37;101311.05;103380;1289;61852;-79
2024/03/17 06:47:46;;;;;;;;;;;;;;;19.82;39.47;101309.11;103203;1291;61263;-80
2024/03/17 06:50:11;;;;;;;;;;;;;;;19.82;39.44;101305.00;103207;1289;61937;-78
2024/03/17 06:52:37;;;;;;;;;;;;;;;19.82;39.42;101308.20;103264;1289;62171;-79
2024/03/17 06:55:04;;;;;;;;;;;;;;;19.83;39.44;101310.64;103282;1289;62837;-79
2024/03/17 06:57:29;;;;;;;;;;;;;;;19.83;39.45;101306.74;103194;1290;63414;-78
2024/03/17 06:59:55;;;;;;;;;;;;;;;19.83;39.41;101312.09;103252;1291;62183;-78
2024/03/17 07:02:20;;;;;;;;;;;;;;;19.83;39.47;101307.46;103204;1289;62195;-78
2024/03/17 07:04:47;;;;;;;;;;;;;;;19.83;39.32;101308.52;103269;1289;62200;-79
2024/03/17 07:07:12;;;;;;;;;;;;;;;19.83;39.42;101310.11;103002;1289;62175;-78
2024/03/17 07:09:39;;;;;;;;;;;;;;;19.83;39.40;101311.38;103267;1291;62142;-78
2024/03/17 07:12:10;;;;;;;;;;;;;;;19.83;39.32;101317.27;103181;1289;74062;-79
2024/03/17 07:14:35;;;;;;;;;;;;;;;19.83;39.32;101316.59;103263;1287;62219;-78
2024/03/17 07:17:01;;;;;;;;;;;;;;;19.84;39.34;101316.70;103110;1287;62279;-78
2024/03/17 07:19:28;;;;;;;;;;;;;;;19.83;39.31;101316.89;103212;1293;62178;-78
2024/03/17 07:21:54;;;;;;;;;;;;;;;19.83;39.26;101319.38;103268;1288;62179;-78
2024/03/17 07:24:20;;;;;;;;;;;;;;;19.84;39.15;101319.71;103171;1289;62271;-78
2024/03/17 07:26:47;;;;;;;;;;;;;;;19.84;39.23;101322.23;103166;1289;62124;-80
2024/03/17 07:29:13;;;;;;;;;;;;;;;19.84;39.28;101323.45;103263;1291;62094;-79
2024/03/17 07:31:39;;;;;;;;;;;;;;;19.84;39.33;101320.95;103290;1289;62445;-78
2024/03/17 07:34:04;;;;;;;;;;;;;;;19.84;39.30;101318.25;103168;1289;62184;-77
2024/03/17 07:36:30;;;;;;;;;;;;;;;19.84;39.36;101314.69;103287;1291;62265;-79
2024/03/17 07:38:56;;;;;;;;;;;;;;;19.84;39.42;101316.28;103238;1289;62197;-80
2024/03/17 07:41:24;;;;;;;;;;;;;;;19.84;39.34;101320.21;103205;1289;62235;-78
2024/03/17 07:43:49;;;;;;;;;;;;;;;19.84;39.22;101316.81;103221;1288;75254;-78
2024/03/17 07:46:15;;;;;;;;;;;;;;;19.85;39.39;101317.16;103276;1288;62108;-79
2024/03/17 07:48:41;;;;;;;;;;;;;;;19.85;39.22;101310.52;103245;1289;62109;-78
2024/03/17 07:51:11;;;;;;;;;;;;;;;19.85;39.39;101312.52;103271;1289;62254;-78
2024/03/17 07:53:38;;;;;;;;;;;;;;;19.85;39.26;101310.52;103288;1289;74053;-78
2024/03/17 07:56:04;;;;;;;;;;;;;;;19.86;39.21;101308.35;103191;1293;62210;-79
2024/03/17 07:58:32;;;;;;;;;;;;;;;19.86;39.42;101305.98;103271;1289;62229;-78
2024/03/17 08:01:02;;;;;;;;;;;;;;;19.87;39.23;101304.88;103278;1292;72500;-79
2024/03/17 08:03:32;;;;;;;;;;;;;;;19.88;39.35;101304.33;102865;1292;75320;-79
2024/03/17 08:05:57;;;;;;;;;;;;;;;19.88;39.42;101298.92;102830;1292;62202;-79
2024/03/17 08:08:23;;;;;;;;;;;;;;;19.88;39.40;101296.76;102883;1292;62327;-79
2024/03/17 08:10:49;;;;;;;;;;;;;;;19.89;39.34;101295.31;102809;1292;62241;-78
2024/03/17 08:13:16;;;;;;;;;;;;;;;19.89;39.31;101293.50;102827;1292;62348;-78
2024/03/17 08:15:45;;;;;;;;;;;;;;;19.90;39.20;101292.20;102928;1292;62181;-78
2024/03/17 08:18:13;;;;;;;;;;;;;;;19.90;39.20;101296.08;102836;1292;62215;-78
2024/03/17 08:20:43;;;;;;;;;;;;;;;19.90;39.29;101293.06;102943;1291;72715;-78
2024/03/17 08:23:10;;;;;;;;;;;;;;;19.91;39.32;101287.86;102782;1294;75030;-77
2024/03/17 08:25:36;;;;;;;;;;;;;;;19.91;39.37;101283.02;102818;1292;62190;-78
2024/03/17 08:28:02;;;;;;;;;;;;;;;19.91;39.25;101279.80;102875;1292;63299;-78
2024/03/17 08:30:28;;;;;;;;;;;;;;;19.92;39.37;101274.03;102793;1290;62362;-79
2024/03/17 08:32:54;;;;;;;;;;;;;;;19.92;39.34;101274.23;102864;1294;63475;-78
2024/03/17 08:35:19;;;;;;;;;;;;;;;19.92;39.39;101270.66;103033;1288;62709;-79
2024/03/17 08:37:45;;;;;;;;;;;;;;;19.92;39.27;101273.14;103166;1289;62283;-79
2024/03/17 08:40:11;;;;;;;;;;;;;;;19.92;39.35;101272.05;103262;1289;63086;-78
2024/03/17 08:42:37;;;;;;;;;;;;;;;19.93;39.34;101271.13;103195;1288;72306;-79
2024/03/17 08:45:03;;;;;;;;;;;;;;;19.93;39.46;101268.79;103257;1291;62592;-78
2024/03/17 08:47:29;;;;;;;;;;;;;;;19.93;39.48;101265.77;103072;1294;63460;-79
2024/03/17 08:49:55;;;;;;;;;;;;;;;19.93;39.38;101262.89;103259;1289;63462;-78
2024/03/17 08:52:20;;;;;;;;;;;;;;;19.93;39.45;101262.19;103269;1289;63295;-78
2024/03/17 08:54:47;;;;;;;;;;;;;;;19.93;39.35;101261.29;103390;1287;62182;-78
2024/03/17 08:57:12;;;;;;;;;;;;;;;19.93;39.31;101261.98;103215;1289;75374;-78
2024/03/17 08:59:38;;;;;;;;;;;;;;;19.94;39.54;101258.76;103138;1289;63309;-78
2024/03/17 09:02:03;;;;;;;;;;;;;;;19.94;39.61;101257.14;103218;1289;62194;-78
2024/03/17 09:04:29;;;;;;;;;;;;;;;19.93;39.48;101253.41;103267;1291;62721;-78
2024/03/17 09:06:56;;;;;;;;;;;;;;;19.94;39.47;101250.70;102999;1287;63239;-79
2024/03/17 09:09:22;;;;;;;;;;;;;;;19.94;39.56;101248.76;103262;1289;62114;-78
2024/03/17 09:11:48;;;;;;;;;;;;;;;19.94;39.38;101247.33;103204;1289;62187;-79
2024/03/17 09:14:13;;;;;;;;;;;;;;;19.94;39.51;101255.89;103228;1289;62166;-77
2024/03/17 09:16:39;;;;;;;;;;;;;;;19.95;39.61;101245.85;103206;1289;62290;-78
2024/03/17 09:19:04;;;;;;;;;;;;;;;19.95;39.46;101244.59;103204;1289;63235;-78
2024/03/17 09:21:30;;;;;;;;;;;;;;;19.95;39.49;101241.72;103188;1287;62289;-78
2024/03/17 09:23:56;;;;;;;;;;;;;;;19.95;39.58;101236.52;103274;1289;62199;-79
2024/03/17 09:26:22;;;;;;;;;;;;;;;19.96;39.49;101240.80;103281;1291;63353;-78
2024/03/17 09:28:48;;;;;;;;;;;;;;;19.95;39.56;101228.17;103133;1288;72487;-80
2024/03/17 09:31:14;;;;;;;;;;;;;;;19.95;39.45;101233.34;103194;1288;62256;-78
2024/03/17 09:33:39;;;;;;;;;;;;;;;19.95;39.45;101228.86;103201;1294;63401;-77
2024/03/17 09:36:10;;;;;;;;;;;;;;;19.96;39.66;101230.44;103169;1289;63465;-79
2024/03/17 09:38:36;;;;;;;;;;;;;;;19.95;39.65;101224.05;103257;1291;72461;-78
2024/03/17 09:41:02;;;;;;;;;;;;;;;19.95;39.61;101221.16;103171;1289;62184;-79
2024/03/17 09:43:34;;;;;;;;;;;;;;;19.96;39.54;101218.30;103297;1290;62261;-78
2024/03/17 09:46:03;;;;;;;;;;;;;;;19.95;39.62;101214.20;103124;1289;62280;-79
2024/03/17 09:48:29;;;;;;;;;;;;;;;19.95;39.70;101209.91;103294;1293;74649;-78
2024/03/17 09:50:59;;;;;;;;;;;;;;;19.95;39.65;101210.61;103192;1289;62126;-80
2024/03/17 09:53:25;;;;;;;;;;;;;;;19.96;39.52;101203.99;103192;1289;62261;-78
2024/03/17 09:55:53;;;;;;;;;;;;;;;19.96;39.67;101205.58;103297;1290;62156;-79
2024/03/17 09:58:19;;;;;;;;;;;;;;;19.96;39.66;101202.73;103189;1294;72600;-80
2024/03/17 10:00:45;;;;;;;;;;;;;;;19.96;39.61;101202.02;103261;1289;62185;-80
2024/03/17 10:03:10;;;;;;;;;;;;;;;19.96;39.64;101201.65;103165;1294;63622;-78
2024/03/17 10:05:36;;;;;;;;;;;;;;;19.96;39.67;101198.42;103299;1289;62274;-78
2024/03/17 10:08:02;;;;;;;;;;;;;;;19.96;39.74;101195.23;103149;1294;62198;-79
2024/03/17 10:10:28;;;;;;;;;;;;;;;19.96;39.66;101191.13;103243;1289;62086;-78
2024/03/17 10:12:53;;;;;;;;;;;;;;;19.96;39.67;101189.48;103328;1289;63474;-79
2024/03/17 10:15:20;;;;;;;;;;;;;;;19.96;39.69;101184.13;103190;1288;62140;-79
2024/03/17 10:17:45;;;;;;;;;;;;;;;19.96;39.78;101188.24;103230;1288;63331;-79
2024/03/17 10:20:23;;;;;;;;;;;;;;;19.96;39.76;101189.48;103155;1289;62318;-78
2024/03/17 10:22:59;;;;;;;;;;;;;;;19.96;39.85;101187.51;102955;1287;74183;-81
2024/03/17 10:25:25;;;;;;;;;;;;;;;19.96;39.89;101184.30;103272;1291;62171;-78
2024/03/17 10:27:52;;;;;;;;;;;;;;;19.96;39.79;101185.37;103217;1289;62200;-78
2024/03/17 10:30:19;;;;;;;;;;;;;;;19.97;39.79;101181.97;103015;1294;72295;-79
2024/03/17 10:32:58;;;;;;;;;;;;;;;19.97;39.72;101185.33;103292;1287;75339;-78
2024/03/17 10:35:28;;;;;;;;;;;;;;;19.97;39.82;101181.05;103218;1287;62134;-77
2024/03/17 10:37:55;;;;;;;;;;;;;;;19.97;39.92;101177.30;103209;1291;62194;-78
2024/03/17 10:40:21;;;;;;;;;;;;;;;19.97;39.79;101178.36;103374;1288;72661;-78
2024/03/17 10:42:48;;;;;;;;;;;;;;;19.97;39.86;101168.55;103231;1289;63462;-78
2024/03/17 10:45:14;;;;;;;;;;;;;;;19.97;39.77;101164.60;103214;1291;62188;-79
2024/03/17 10:47:40;;;;;;;;;;;;;;;19.98;39.77;101168.14;103298;1290;62210;-79
2024/03/17 10:50:07;;;;;;;;;;;;;;;19.97;39.71;101169.25;103175;1289;63287;-78
2024/03/17 10:52:33;;;;;;;;;;;;;;;19.97;39.77;101169.77;103259;1289;62317;-78
2024/03/17 10:54:59;;;;;;;;;;;;;;;19.97;39.91;101169.98;103317;1291;62083;-78
2024/03/17 10:57:30;;;;;;;;;;;;;;;19.97;39.66;101169.59;103145;1288;62171;-79
2024/03/17 10:59:56;;;;;;;;;;;;;;;19.97;39.86;101172.98;103207;1289;72279;-78
2024/03/17 11:02:25;;;;;;;;;;;;;;;19.97;39.76;101165.48;103216;1291;62567;-78
2024/03/17 11:04:54;;;;;;;;;;;;;;;19.97;39.79;101164.39;103266;1287;62180;-78
2024/03/17 11:07:20;;;;;;;;;;;;;;;19.97;39.91;101161.36;103371;1287;63169;-77
2024/03/17 11:09:47;;;;;;;;;;;;;;;19.97;39.86;101159.94;103183;1288;62347;-78
2024/03/17 11:12:31;;;;;;;;;;;;;;;19.97;39.87;101157.98;103117;1289;62181;-80
2024/03/17 11:15:17;;;;;;;;;;;;;;;19.97;39.95;101152.45;103282;1287;62085;-78
2024/03/17 11:17:42;;;;;;;;;;;;;;;19.97;39.82;101150.64;103288;1288;62002;-78
2024/03/17 11:20:14;;;;;;;;;;;;;;;19.98;39.90;101157.23;103172;1289;72524;-79
2024/03/17 11:22:48;;;;;;;;;;;;;;;19.97;39.83;101151.72;103187;1288;75325;-79
2024/03/17 11:25:33;;;;;;;;;;;;;;;19.97;39.87;101150.66;103150;1288;62140;-79
2024/03/17 11:28:03;;;;;;;;;;;;;;;19.97;39.96;101147.60;103264;1289;62162;-78
2024/03/17 11:30:46;;;;;;;;;;;;;;;19.97;39.97;101139.40;103273;1291;72581;-79
2024/03/17 11:33:35;;;;;;;;;;;;;;;19.97;39.94;101135.11;103190;1288;75268;-78
2024/03/17 11:36:28;;;;;;;;;;;;;;;19.98;40.00;101130.63;103652;1289;62184;-79
2024/03/17 11:39:17;;;;;;;;;;;;;;;19.97;39.98;101125.81;103469;1288;62188;-79
2024/03/17 11:41:43;;;;;;;;;;;;;;;19.98;39.93;101121.33;103211;1290;72453;-78
2024/03/17 11:44:15;;;;;;;;;;;;;;;19.97;40.05;101122.05;103223;1289;63301;-78
2024/03/17 11:46:44;;;;;;;;;;;;;;;19.98;40.02;101119.70;103453;1291;62181;-78
2024/03/17 11:49:29;;;;;;;;;;;;;;;19.98;39.93;101118.98;103309;1291;62197;-78
2024/03/17 11:52:04;;;;;;;;;;;;;;;19.99;39.89;101118.25;103292;1288;72318;-78
2024/03/17 11:54:30;;;;;;;;;;;;;;;19.98;39.85;101112.18;103553;1291;75380;-78
2024/03/17 11:57:06;;;;;;;;;;;;;;;19.99;40.07;101112.68;103650;1291;62178;-78
2024/03/17 11:59:32;;;;;;;;;;;;;;;19.99;39.82;101108.71;103708;1291;62019;-78
2024/03/17 12:01:57;;;;;;;;;;;;;;;20.00;40.03;101103.16;103382;1294;62058;-78
2024/03/17 12:04:24;;;;;;;;;;;;;;;19.99;39.99;101096.02;103275;1289;62288;-79
2024/03/17 12:06:51;;;;;;;;;;;;;;;20.00;39.95;101093.68;103473;1292;62203;-78
2024/03/17 12:09:24;;;;;;;;;;;;;;;20.00;39.94;101087.61;103271;1289;62203;-79
2024/03/17 12:12:05;;;;;;;;;;;;;;;20.01;40.08;101086.50;103227;1290;72269;-79
2024/03/17 12:14:30;;;;;;;;;;;;;;;20.00;40.15;101081.52;103220;1291;75276;-78
2024/03/17 12:16:57;;;;;;;;;;;;;;;20.00;39.88;101079.37;103254;1294;62225;-78
2024/03/17 12:19:23;;;;;;;;;;;;;;;20.00;39.87;101079.02;103240;1287;62168;-78
2024/03/17 12:21:49;;;;;;;;;;;;;;;20.00;40.07;101076.71;103265;1291;62100;-79
2024/03/17 12:24:19;;;;;;;;;;;;;;;20.00;39.96;101077.60;103672;1289;62659;-78
2024/03/17 12:26:45;;;;;;;;;;;;;;;20.00;39.98;101076.88;103335;1289;62172;-78
2024/03/17 12:29:44;;;;;;;;;;;;;;;20.00;39.98;101068.13;103346;1289;62805;-79